Map

Track Data

SID SEASON NUMBER BASIN SUBBASIN NAME ISO_TIME NATURE LAT LON WMO_WIND WMO_PRES WMO_AGENCY TRACK_TYPE DIST2LAND LANDFALL IFLAG USA_AGENCY USA_ATCF_ID USA_LAT USA_LON USA_RECORD USA_STATUS USA_WIND USA_PRES USA_SSHS USA_R34_NE USA_R34_SE USA_R34_SW USA_R34_NW USA_R50_NE USA_R50_SE USA_R50_SW USA_R50_NW USA_R64_NE USA_R64_SE USA_R64_SW USA_R64_NW USA_POCI USA_ROCI USA_RMW USA_EYE TOKYO_LAT TOKYO_LON TOKYO_GRADE TOKYO_WIND TOKYO_PRES TOKYO_R50_DIR TOKYO_R50_LONG TOKYO_R50_SHORT TOKYO_R30_DIR TOKYO_R30_LONG TOKYO_R30_SHORT TOKYO_LAND CMA_LAT CMA_LON CMA_CAT CMA_WIND CMA_PRES HKO_LAT HKO_LON HKO_CAT HKO_WIND HKO_PRES NEWDELHI_LAT NEWDELHI_LON NEWDELHI_GRADE NEWDELHI_WIND NEWDELHI_PRES NEWDELHI_CI NEWDELHI_DP NEWDELHI_POCI REUNION_LAT REUNION_LON REUNION_TYPE REUNION_WIND REUNION_PRES REUNION_TNUM REUNION_CI REUNION_RMW REUNION_R34_NE REUNION_R34_SE REUNION_R34_SW REUNION_R34_NW REUNION_R50_NE REUNION_R50_SE REUNION_R50_SW REUNION_R50_NW REUNION_R64_NE REUNION_R64_SE REUNION_R64_SW REUNION_R64_NW BOM_LAT BOM_LON BOM_TYPE BOM_WIND BOM_PRES BOM_TNUM BOM_CI BOM_RMW BOM_R34_NE BOM_R34_SE BOM_R34_SW BOM_R34_NW BOM_R50_NE BOM_R50_SE BOM_R50_SW BOM_R50_NW BOM_R64_NE BOM_R64_SE BOM_R64_SW BOM_R64_NW BOM_ROCI BOM_POCI BOM_EYE BOM_POS_METHOD BOM_PRES_METHOD NADI_LAT NADI_LON NADI_CAT NADI_WIND NADI_PRES WELLINGTON_LAT WELLINGTON_LON WELLINGTON_WIND WELLINGTON_PRES DS824_LAT DS824_LON DS824_STAGE DS824_WIND DS824_PRES TD9636_LAT TD9636_LON TD9636_STAGE TD9636_WIND TD9636_PRES TD9635_LAT TD9635_LON TD9635_WIND TD9635_PRES TD9635_ROCI NEUMANN_LAT NEUMANN_LON NEUMANN_CLASS NEUMANN_WIND NEUMANN_PRES MLC_LAT MLC_LON MLC_CLASS MLC_WIND MLC_PRES USA_GUST BOM_GUST BOM_GUST_PER REUNION_GUST REUNION_GUST_PER USA_SEAHGT USA_SEARAD_NE USA_SEARAD_SE USA_SEARAD_SW USA_SEARAD_NW STORM_SPEED STORM_DIR
2021216N25128 2021 53 WP MM MIRINAE 2021-08-04 06:00:00 NR 25.0000 128.200 PROVISIONAL 624 584 O_____________ tcvightals WP142021 25.0000 128.200 25 997 -1 1000 150 120 11 320
2021216N25128 2021 53 WP MM MIRINAE 2021-08-04 09:00:00 NR 25.4075 127.818 PROVISIONAL 584 547 P_____________ WP142021 25.4075 127.818 27 996 -1 1000 150 85 10 314
2021216N25128 2021 53 WP MM MIRINAE 2021-08-04 12:00:00 NR 25.7000 127.400 PROVISIONAL 547 509 O_____________ tcvightals WP142021 25.7000 127.400 29 996 -1 1000 150 50 9 297
2021216N25128 2021 53 WP MM MIRINAE 2021-08-04 15:00:00 NR 25.8152 126.947 PROVISIONAL 499 472 P_____________ WP142021 25.8152 126.947 29 995 -1 1000 150 50 7 286
2021216N25128 2021 53 WP MM MIRINAE 2021-08-04 18:00:00 NR 25.9000 126.600 PROVISIONAL 472 455 O_____________ tcvightals WP142021 25.9000 126.600 29 994 -1 1000 150 50 6 303
2021216N25128 2021 53 WP MM MIRINAE 2021-08-04 21:00:00 NR 26.1343 126.393 PROVISIONAL 457 457 P_____________ WP142021 26.1585 126.410 27 994 -1 1000 150 50 5 350
2021216N25128 2021 53 WP MM MIRINAE 2021-08-05 00:00:00 NR 26.4000 126.500 PROVISIONAL 476 476 O_____________ tcvitals WP142021 26.4000 126.500 25 995 -1 1000 150 50 7 54
2021216N25128 2021 53 WP MM MIRINAE 2021-08-05 03:00:00 NR 26.5620 127.055 PROVISIONAL 540 540 P_____________ WP142021 26.4698 126.942 -1 999 150 50 11 76
2021216N25128 2021 53 WP MM MIRINAE 2021-08-05 06:00:00 NR 26.6628 127.700 PROVISIONAL 557 538 O_____________ tcvitals WP142021 26.4798 127.568 -1 998 150 50 10 81
2021216N25128 2021 53 WP MM MIRINAE 2021-08-05 09:00:00 NR 26.7313 128.201 PROVISIONAL 538 507 P_____________ WP142021 26.5261 128.116 -1 998 155 50 9 82
2021216N25128 2021 53 WP MM MIRINAE 2021-08-05 12:00:00 NR 26.7927 128.744 PROVISIONAL 507 485 O_____________ tcvitals WP142021 26.5854 128.688 -1 40 110 999 160 50 11 86
2021216N25128 2021 53 WP MM MIRINAE 2021-08-05 15:00:00 NR 26.8070 129.416 PROVISIONAL 485 472 P_____________ WP142021 26.6558 129.281 -1 67 110 999 160 50 12 89
2021216N25128 2021 53 WP MM MIRINAE 2021-08-05 18:00:00 NR 26.8244 130.107 PROVISIONAL 472 457 O_____________ tcvitals WP142021 26.7488 129.913 -1 95 110 75 999 160 50 11 86
2021216N25128 2021 53 WP MM MIRINAE 2021-08-05 21:00:00 NR 26.8886 130.672 PROVISIONAL 457 447 P_____________ WP142021 26.8589 130.581 -1 77 95 77 999 160 50 11 81
2021216N25128 2021 53 WP MM MIRINAE 2021-08-06 00:00:00 NR 27.0000 131.300 PROVISIONAL 450 446 O_____________ tcvitals WP142021 27.0000 131.300 35 992 0 60 80 80 60 999 160 50 14 80
2021216N25128 2021 53 WP MM MIRINAE 2021-08-06 03:00:00 NR 27.1340 132.204 PROVISIONAL 459 451 P_____________ WP142021 27.1602 132.054 36 990 0 85 100 95 60 999 167 50 17 80
2021216N25128 2021 53 WP MM MIRINAE 2021-08-06 06:00:00 NR 27.3128 133.215 PROVISIONAL 478 478 I_____________ tcvitals WP142021 27.3642 132.873 37 989 0 110 120 110 60 999 175 50 17 74
2021216N25128 2021 53 WP MM MIRINAE 2021-08-06 09:00:00 NR 27.5831 134.000 PROVISIONAL 492 488 P_____________ WP142021 27.6214 133.755 38 987 0 112 160 130 57 999 177 50 14 66
2021216N25128 2021 53 WP MM MIRINAE 2021-08-06 12:00:00 NR 27.9000 134.700 PROVISIONAL 503 503 O_____________ tcvightals WP142021 27.9000 134.700 39 986 0 115 200 150 55 999 180 50 16 71
2021216N25128 2021 53 WP MM MIRINAE 2021-08-06 15:00:00 NR 28.1292 135.745 PROVISIONAL 554 554 P_____________ WP142021 28.1238 135.777 39 988 0 122 152 127 45 999 170 50 18 74
2021216N25128 2021 53 WP MM MIRINAE 2021-08-06 18:00:00 NR 28.4000 136.700 PROVISIONAL 564 538 O_____________ tcvightals WP142021 28.4000 136.700 39 990 0 130 105 105 35 1000 160 50 14 63
2021216N25128 2021 53 WP MM MIRINAE 2021-08-06 21:00:00 NR 28.7585 137.177 PROVISIONAL 530 484 P_____________ WP142021 28.7585 137.177 42 988 0 120 135 112 55 1001 160 50 11 38
2021216N25128 2021 53 WP MM MIRINAE 2021-08-07 00:00:00 NR 29.3000 137.500 PROVISIONAL 484 422 O_____________ tcvightals WP142021 29.3000 137.500 45 987 0 110 165 120 75 1002 160 50 16 28
2021216N25128 2021 53 WP MM MIRINAE 2021-08-07 03:00:00 NR 30.1503 138.021 PROVISIONAL 412 368 P_____________ WP142021 30.1503 138.021 40 991 0 82 152 100 70 1001 155 57 19 27
2021216N25128 2021 53 WP MM MIRINAE 2021-08-07 06:00:00 NR 31.0000 138.500 PROVISIONAL 368 345 O_____________ tcvightals WP142021 31.0000 138.500 35 995 0 55 140 80 65 1001 150 65 15 26
2021216N25128 2021 53 WP MM MIRINAE 2021-08-07 09:00:00 NR 31.4796 138.789 PROVISIONAL 345 301 P_____________ WP142021 31.4796 138.789 37 992 0 42 130 82 57 1001 145 62 10 25
2021216N25128 2021 53 WP MM MIRINAE 2021-08-07 12:00:00 NR 31.9000 139.000 PROVISIONAL 301 237 O_____________ tcvightals WP142021 31.9000 139.000 39 990 0 30 120 85 50 1001 140 60 11 18
2021216N25128 2021 53 WP MM MIRINAE 2021-08-07 15:00:00 NR 32.5571 139.206 PROVISIONAL 226 168 P_____________ WP142021 32.5571 139.206 42 987 0 85 140 90 55 1001 140 45 14 18
2021216N25128 2021 53 WP MM MIRINAE 2021-08-07 18:00:00 NR 33.2000 139.500 PROVISIONAL 168 144 O_____________ tcvightals WP142021 33.2000 139.500 45 984 0 140 160 95 60 1001 140 30 12 32
2021216N25128 2021 53 WP MM MIRINAE 2021-08-07 21:00:00 NR 33.6073 139.977 PROVISIONAL 145 119 P_____________ WP142021 33.6073 139.977 45 982 0 125 180 92 70 1001 140 32 12 49
2021216N25128 2021 53 WP MM MIRINAE 2021-08-08 00:00:00 NR 34.0000 140.600 PROVISIONAL 119 105 O_____________ tcvightals WP142021 34.0000 140.600 45 980 0 110 200 90 80 1001 140 35 15 49
2021216N25128 2021 53 WP MM MIRINAE 2021-08-08 03:00:00 NR 34.5849 141.312 PROVISIONAL 105 105 P_____________ WP142021 34.5849 141.312 45 981 0 110 195 102 77 1001 140 35 17 46
2021216N25128 2021 53 WP MM MIRINAE 2021-08-08 06:00:00 NR 35.2000 142.100 PROVISIONAL 121 121 O_____________ tcvightals WP142021 35.2000 142.100 45 982 0 110 190 115 75 1001 140 35 17 49
2021216N25128 2021 53 WP MM MIRINAE 2021-08-08 09:00:00 NR 35.7299 142.908 PROVISIONAL 180 180 P_____________ WP142021 35.7299 142.908 45 982 0 90 167 117 1001 150 55 16 52
2021216N25128 2021 53 WP MM MIRINAE 2021-08-08 12:00:00 NR 36.2000 143.700 PROVISIONAL 256 256 O_____________ tcvightals WP142021 36.2000 143.700 45 982 0 70 145 120 1002 160 75 15 53
2021216N25128 2021 53 WP MM MIRINAE 2021-08-08 15:00:00 NR 36.6211 144.379 PROVISIONAL 305 305 P_____________ WP142021 36.6211 144.379 48 981 0 90 150 132 1002 160 44 14 55
2021216N25128 2021 53 WP MM MIRINAE 2021-08-08 18:00:00 NR 37.0000 145.100 PROVISIONAL 347 347 O_____________ tcvightals WP142021 37.0000 145.100 51 980 0 110 155 145 90 1002 160 14 14 59
2021216N25128 2021 53 WP MM MIRINAE 2021-08-08 21:00:00 NR 37.3702 145.931 PROVISIONAL 398 398 P_____________ WP142021 37.3702 145.931 48 981 0 92 157 165 67 1002 160 14 17 65
2021216N25128 2021 53 WP MM MIRINAE 2021-08-09 00:00:00 NR 37.7000 147.000 PROVISIONAL 469 469 O_____________ tcvightals WP142021 37.7000 147.000 45 983 0 75 160 185 45 1002 160 14 21 73
2021216N25128 2021 53 WP MM MIRINAE 2021-08-09 03:00:00 NR 37.9981 148.484 PROVISIONAL 577 577 P_____________ WP142021 37.9981 148.484 45 984 0 82 170 170 47 1002 167 22 24 78
2021216N25128 2021 53 WP MM MIRINAE 2021-08-09 06:00:00 NR 38.2000 150.000 PROVISIONAL 672 672 O_____________ tcvightals WP142021 38.2000 150.000 45 985 0 90 180 155 50 1002 175 30 21 82
2021216N25128 2021 53 WP MM MIRINAE 2021-08-09 09:00:00 NR 38.2765 151.104 PROVISIONAL 719 719 P_____________ WP142021 38.2765 151.104 42 985 0 90 177 157 55 1002 175 30 16 87
2021216N25128 2021 53 WP MM MIRINAE 2021-08-09 12:00:00 NR 38.3000 152.100 PROVISIONAL 776 776 O_____________ tcvightals WP142021 38.3000 152.100 39 986 0 90 175 160 60 1002 175 30 16 88
2021216N25128 2021 53 WP MM MIRINAE 2021-08-09 15:00:00 NR 38.3438 153.206 PROVISIONAL 845 845 P_____________ WP142021 38.3438 153.206 39 986 0 112 135 127 87 1002 180 30 18 87
2021216N25128 2021 53 WP MM MIRINAE 2021-08-09 18:00:00 NR 38.4000 154.400 PROVISIONAL 889 O_____________ tcvightals WP142021 38.4000 154.400 39 987 0 135 95 95 115 1002 185 30 19 87

Digital Typhoon Data and Search

About IBTrACS Database

This database is a web-friendly format of International Best Track Archive for Climate Stewardship (IBTrACS), a global best track data archive curated by NOAA dating back to 1842.

Updated: 2022-09-26